sensor_id;sensor_type;location;lat;lon;timestamp;pressure;altitude;pressure_sealevel;temperature;humidity
42587;BME280;28216;53.362;-6.288;2023-05-01T00:00:51;101533.88;;;12.99;100.00
42587;BME280;28216;53.362;-6.288;2023-05-01T00:03:17;101534.56;;;13.01;100.00
42587;BME280;28216;53.362;-6.288;2023-05-01T00:05:44;101542.59;;;12.99;100.00
42587;BME280;28216;53.362;-6.288;2023-05-01T00:08:10;101542.28;;;13.02;100.00
42587;BME280;28216;53.362;-6.288;2023-05-01T00:10:36;101540.84;;;13.08;100.00
42587;BME280;28216;53.362;-6.288;2023-05-01T00:13:02;101546.78;;;13.10;100.00
42587;BME280;28216;53.362;-6.288;2023-05-01T00:15:28;101539.69;;;13.11;100.00
42587;BME280;28216;53.362;-6.288;2023-05-01T00:17:54;101541.03;;;13.15;100.00
42587;BME280;28216;53.362;-6.288;2023-05-01T00:20:19;101547.00;;;13.17;100.00
42587;BME280;28216;53.362;-6.288;2023-05-01T00:22:45;101538.13;;;13.18;100.00
42587;BME280;28216;53.362;-6.288;2023-05-01T00:25:11;101547.00;;;13.17;100.00
42587;BME280;28216;53.362;-6.288;2023-05-01T00:27:37;101540.06;;;13.16;100.00
42587;BME280;28216;53.362;-6.288;2023-05-01T00:30:02;101540.75;;;13.18;100.00
42587;BME280;28216;53.362;-6.288;2023-05-01T00:32:28;101535.34;;;13.19;100.00
42587;BME280;28216;53.362;-6.288;2023-05-01T00:34:54;101541.75;;;13.17;100.00
42587;BME280;28216;53.362;-6.288;2023-05-01T00:37:22;101533.28;;;13.13;100.00
42587;BME280;28216;53.362;-6.288;2023-05-01T00:39:47;101541.03;;;13.15;100.00
42587;BME280;28216;53.362;-6.288;2023-05-01T00:42:13;101534.09;;;13.05;100.00
42587;BME280;28216;53.362;-6.288;2023-05-01T00:44:38;101530.16;;;13.10;100.00
42587;BME280;28216;53.362;-6.288;2023-05-01T00:47:04;101539.16;;;12.99;100.00
42587;BME280;28216;53.362;-6.288;2023-05-01T00:49:29;101538.63;;;12.95;100.00
42587;BME280;28216;53.362;-6.288;2023-05-01T00:51:55;101536.66;;;12.97;100.00
42587;BME280;28216;53.362;-6.288;2023-05-01T00:54:23;101542.75;;;12.98;100.00
42587;BME280;28216;53.362;-6.288;2023-05-01T00:56:50;101542.25;;;12.94;100.00
42587;BME280;28216;53.362;-6.288;2023-05-01T00:59:16;101544.72;;;12.96;100.00
42587;BME280;28216;53.362;-6.288;2023-05-01T01:01:42;101552.78;;;12.94;100.00
42587;BME280;28216;53.362;-6.288;2023-05-01T01:04:07;101550.31;;;12.93;100.00
42587;BME280;28216;53.362;-6.288;2023-05-01T01:14:49;101543.22;;;12.93;100.00
42587;BME280;28216;53.362;-6.288;2023-05-01T01:17:21;101538.94;;;12.92;100.00
42587;BME280;28216;53.362;-6.288;2023-05-01T01:22:34;101541.47;;;12.76;100.00
42587;BME280;28216;53.362;-6.288;2023-05-01T01:34:00;101536.75;;;12.62;100.00
42587;BME280;28216;53.362;-6.288;2023-05-01T01:36:45;101536.69;;;12.54;100.00
42587;BME280;28216;53.362;-6.288;2023-05-01T01:39:29;101539.53;;;12.60;100.00
42587;BME280;28216;53.362;-6.288;2023-05-01T01:41:58;101538.69;;;12.60;100.00
42587;BME280;28216;53.362;-6.288;2023-05-01T01:44:59;101540.91;;;12.64;100.00
42587;BME280;28216;53.362;-6.288;2023-05-01T01:47:29;101536.97;;;12.68;100.00
42587;BME280;28216;53.362;-6.288;2023-05-01T01:49:57;101528.41;;;12.66;100.00
42587;BME280;28216;53.362;-6.288;2023-05-01T01:52:25;101541.41;;;12.68;100.00
42587;BME280;28216;53.362;-6.288;2023-05-01T01:54:55;101533.38;;;12.69;100.00
42587;BME280;28216;53.362;-6.288;2023-05-01T01:57:24;101525.25;;;12.63;100.00
42587;BME280;28216;53.362;-6.288;2023-05-01T01:59:52;101524.03;;;12.75;100.00
42587;BME280;28216;53.362;-6.288;2023-05-01T02:02:20;101525.72;;;12.84;100.00
42587;BME280;28216;53.362;-6.288;2023-05-01T02:04:50;101521.31;;;12.85;100.00
42587;BME280;28216;53.362;-6.288;2023-05-01T02:07:16;101520.16;;;12.87;100.00
42587;BME280;28216;53.362;-6.288;2023-05-01T02:09:43;101520.94;;;12.80;100.00
42587;BME280;28216;53.362;-6.288;2023-05-01T02:12:11;101515.72;;;12.88;100.00
42587;BME280;28216;53.362;-6.288;2023-05-01T02:14:37;101515.56;;;12.89;100.00
42587;BME280;28216;53.362;-6.288;2023-05-01T02:17:04;101512.94;;;12.89;100.00
42587;BME280;28216;53.362;-6.288;2023-05-01T02:19:31;101521.81;;;12.88;100.00
42587;BME280;28216;53.362;-6.288;2023-05-01T02:21:58;101514.91;;;12.87;100.00
42587;BME280;28216;53.362;-6.288;2023-05-01T02:24:24;101522.91;;;12.78;100.00
42587;BME280;28216;53.362;-6.288;2023-05-01T02:26:58;101511.50;;;12.69;100.00
42587;BME280;28216;53.362;-6.288;2023-05-01T02:29:25;101515.94;;;12.68;100.00
42587;BME280;28216;53.362;-6.288;2023-05-01T02:31:51;101514.34;;;12.76;100.00
42587;BME280;28216;53.362;-6.288;2023-05-01T02:34:17;101518.94;;;12.73;100.00
42587;BME280;28216;53.362;-6.288;2023-05-01T02:36:42;101524.81;;;12.67;100.00
42587;BME280;28216;53.362;-6.288;2023-05-01T02:39:08;101518.72;;;12.67;100.00
42587;BME280;28216;53.362;-6.288;2023-05-01T02:41:35;101510.22;;;12.73;100.00
42587;BME280;28216;53.362;-6.288;2023-05-01T02:44:02;101514.66;;;12.72;100.00
42587;BME280;28216;53.362;-6.288;2023-05-01T02:46:30;101520.22;;;12.69;100.00
42587;BME280;28216;53.362;-6.288;2023-05-01T02:49:00;101521.41;;;12.75;100.00
42587;BME280;28216;53.362;-6.288;2023-05-01T02:51:27;101515.16;;;12.76;100.00
42587;BME280;28216;53.362;-6.288;2023-05-01T02:53:53;101521.03;;;12.70;100.00
42587;BME280;28216;53.362;-6.288;2023-05-01T02:56:19;101510.06;;;12.75;100.00
42587;BME280;28216;53.362;-6.288;2023-05-01T02:58:46;101517.34;;;12.63;100.00
42587;BME280;28216;53.362;-6.288;2023-05-01T03:01:12;101522.47;;;12.64;100.00
42587;BME280;28216;53.362;-6.288;2023-05-01T03:03:38;101517.06;;;12.66;100.00
42587;BME280;28216;53.362;-6.288;2023-05-01T03:06:03;101519.31;;;12.61;100.00
42587;BME280;28216;53.362;-6.288;2023-05-01T03:08:29;101518.19;;;12.63;100.00
42587;BME280;28216;53.362;-6.288;2023-05-01T03:10:54;101512.78;;;12.65;100.00
42587;BME280;28216;53.362;-6.288;2023-05-01T03:13:20;101514.59;;;12.64;100.00
42587;BME280;28216;53.362;-6.288;2023-05-01T03:15:46;101518.72;;;12.67;100.00
42587;BME280;28216;53.362;-6.288;2023-05-01T03:18:12;101512.63;;;12.66;100.00
42587;BME280;28216;53.362;-6.288;2023-05-01T03:20:37;101513.16;;;12.70;100.00
42587;BME280;28216;53.362;-6.288;2023-05-01T03:23:02;101503.81;;;12.76;100.00
42587;BME280;28216;53.362;-6.288;2023-05-01T03:25:28;101510.38;;;12.71;100.00
42587;BME280;28216;53.362;-6.288;2023-05-01T03:27:53;101504.19;;;12.63;100.00
42587;BME280;28216;53.362;-6.288;2023-05-01T03:30:19;101509.69;;;12.69;100.00
42587;BME280;28216;53.362;-6.288;2023-05-01T03:32:44;101508.88;;;12.69;100.00
42587;BME280;28216;53.362;-6.288;2023-05-01T03:35:10;101507.41;;;12.75;100.00
42587;BME280;28216;53.362;-6.288;2023-05-01T03:37:35;101511.84;;;12.74;100.00
42587;BME280;28216;53.362;-6.288;2023-05-01T03:40:01;101516.13;;;12.75;100.00
42587;BME280;28216;53.362;-6.288;2023-05-01T03:42:26;101512.69;;;12.75;100.00
42587;BME280;28216;53.362;-6.288;2023-05-01T03:44:52;101513.66;;;12.73;100.00
42587;BME280;28216;53.362;-6.288;2023-05-01T03:47:18;101517.78;;;12.76;100.00
42587;BME280;28216;53.362;-6.288;2023-05-01T03:49:46;101526.66;;;12.75;100.00
42587;BME280;28216;53.362;-6.288;2023-05-01T03:52:11;101528.78;;;12.71;100.00
42587;BME280;28216;53.362;-6.288;2023-05-01T03:54:37;101529.75;;;12.70;100.00
42587;BME280;28216;53.362;-6.288;2023-05-01T03:57:03;101530.50;;;12.63;100.00
42587;BME280;28216;53.362;-6.288;2023-05-01T03:59:29;101531.78;;;12.59;100.00
42587;BME280;28216;53.362;-6.288;2023-05-01T04:01:54;101536.84;;;12.52;100.00
42587;BME280;28216;53.362;-6.288;2023-05-01T04:04:20;101536.38;;;12.57;100.00
42587;BME280;28216;53.362;-6.288;2023-05-01T04:06:45;101541.31;;;12.60;100.00
42587;BME280;28216;53.362;-6.288;2023-05-01T04:09:12;101541.47;;;12.58;100.00
42587;BME280;28216;53.362;-6.288;2023-05-01T04:11:38;101549.53;;;12.57;100.00
42587;BME280;28216;53.362;-6.288;2023-05-01T04:14:03;101548.91;;;12.63;100.00
42587;BME280;28216;53.362;-6.288;2023-05-01T04:16:29;101547.25;;;12.62;100.00
42587;BME280;28216;53.362;-6.288;2023-05-01T04:18:55;101550.44;;;12.65;100.00
42587;BME280;28216;53.362;-6.288;2023-05-01T04:21:21;101549.00;;;12.71;100.00
42587;BME280;28216;53.362;-6.288;2023-05-01T04:23:46;101559.38;;;12.72;100.00
42587;BME280;28216;53.362;-6.288;2023-05-01T04:26:12;101557.88;;;12.70;100.00
42587;BME280;28216;53.362;-6.288;2023-05-01T04:28:37;101562.69;;;12.75;100.00
42587;BME280;28216;53.362;-6.288;2023-05-01T04:31:03;101559.06;;;12.76;100.00
42587;BME280;28216;53.362;-6.288;2023-05-01T04:33:28;101564.13;;;12.69;100.00
42587;BME280;28216;53.362;-6.288;2023-05-01T04:35:54;101564.94;;;12.69;100.00
42587;BME280;28216;53.362;-6.288;2023-05-01T04:38:19;101569.75;;;12.74;100.00
42587;BME280;28216;53.362;-6.288;2023-05-01T04:40:45;101567.31;;;12.81;100.00
42587;BME280;28216;53.362;-6.288;2023-05-01T04:43:10;101577.03;;;12.80;100.00
42587;BME280;28216;53.362;-6.288;2023-05-01T04:45:39;101579.66;;;12.80;100.00
42587;BME280;28216;53.362;-6.288;2023-05-01T04:48:04;101581.47;;;12.80;100.00
42587;BME280;28216;53.362;-6.288;2023-05-01T04:50:30;101580.34;;;12.82;100.00
42587;BME280;28216;53.362;-6.288;2023-05-01T04:52:56;101581.97;;;12.83;100.00
42587;BME280;28216;53.362;-6.288;2023-05-01T04:55:21;101586.38;;;12.75;100.00
42587;BME280;28216;53.362;-6.288;2023-05-01T04:57:47;101584.09;;;12.80;100.00
42587;BME280;28216;53.362;-6.288;2023-05-01T05:00:12;101585.75;;;12.81;100.00
42587;BME280;28216;53.362;-6.288;2023-05-01T05:02:38;101586.72;;;12.80;100.00
42587;BME280;28216;53.362;-6.288;2023-05-01T05:05:04;101602.38;;;12.81;100.00
42587;BME280;28216;53.362;-6.288;2023-05-01T05:07:30;101600.25;;;12.85;100.00
42587;BME280;28216;53.362;-6.288;2023-05-01T05:09:55;101602.41;;;12.89;100.00
42587;BME280;28216;53.362;-6.288;2023-05-01T05:12:21;101606.50;;;12.84;100.00
42587;BME280;28216;53.362;-6.288;2023-05-01T05:14:46;101607.94;;;12.78;100.00
42587;BME280;28216;53.362;-6.288;2023-05-01T05:17:12;101600.25;;;12.85;100.00
42587;BME280;28216;53.362;-6.288;2023-05-01T05:19:37;101606.50;;;12.84;100.00
42587;BME280;28216;53.362;-6.288;2023-05-01T05:22:03;101609.34;;;12.90;100.00
42587;BME280;28216;53.362;-6.288;2023-05-01T05:24:29;101595.56;;;12.96;100.00
42587;BME280;28216;53.362;-6.288;2023-05-01T05:26:55;101597.38;;;12.96;100.00
42587;BME280;28216;53.362;-6.288;2023-05-01T05:29:20;101593.97;;;13.03;100.00
42587;BME280;28216;53.362;-6.288;2023-05-01T05:31:46;101606.00;;;13.06;100.00
42587;BME280;28216;53.362;-6.288;2023-05-01T05:34:12;101604.19;;;13.07;100.00
42587;BME280;28216;53.362;-6.288;2023-05-01T05:36:37;101603.03;;;13.09;100.00
42587;BME280;28216;53.362;-6.288;2023-05-01T05:39:03;101618.38;;;13.14;100.00
42587;BME280;28216;53.362;-6.288;2023-05-01T05:41:29;101607.84;;;13.14;100.00
42587;BME280;28216;53.362;-6.288;2023-05-01T05:43:54;101610.31;;;13.15;100.00
42587;BME280;28216;53.362;-6.288;2023-05-01T05:46:20;101600.09;;;13.12;100.00
42587;BME280;28216;53.362;-6.288;2023-05-01T05:48:45;101602.84;;;13.02;100.00
42587;BME280;28216;53.362;-6.288;2023-05-01T05:51:11;101608.00;;;13.12;100.00
42587;BME280;28216;53.362;-6.288;2023-05-01T05:53:42;101611.31;;;13.14;100.00
42587;BME280;28216;53.362;-6.288;2023-05-01T05:56:08;101610.19;;;13.17;100.00
42587;BME280;28216;53.362;-6.288;2023-05-01T05:58:33;101605.38;;;13.12;100.00
42587;BME280;28216;53.362;-6.288;2023-05-01T06:00:59;101615.75;;;13.14;100.00
42587;BME280;28216;53.362;-6.288;2023-05-01T06:03:24;101617.41;;;13.15;100.00
42587;BME280;28216;53.362;-6.288;2023-05-01T06:05:51;101611.69;;;13.19;100.00
42587;BME280;28216;53.362;-6.288;2023-05-01T06:08:16;101629.31;;;13.19;100.00
42587;BME280;28216;53.362;-6.288;2023-05-01T06:10:42;101625.22;;;13.24;100.00
42587;BME280;28216;53.362;-6.288;2023-05-01T06:13:08;101626.41;;;13.30;100.00
42587;BME280;28216;53.362;-6.288;2023-05-01T06:15:35;101634.81;;;13.33;100.00
42587;BME280;28216;53.362;-6.288;2023-05-01T06:18:01;101635.97;;;13.31;100.00
42587;BME280;28216;53.362;-6.288;2023-05-01T06:20:27;101637.41;;;13.25;100.00
42587;BME280;28216;53.362;-6.288;2023-05-01T06:22:52;101644.84;;;13.30;100.00
42587;BME280;28216;53.362;-6.288;2023-05-01T06:25:18;101639.66;;;13.38;100.00
42587;BME280;28216;53.362;-6.288;2023-05-01T06:27:43;101654.59;;;13.38;100.00
42587;BME280;28216;53.362;-6.288;2023-05-01T06:30:09;101648.16;;;13.32;100.00
42587;BME280;28216;53.362;-6.288;2023-05-01T06:32:35;101656.06;;;13.32;100.00
42587;BME280;28216;53.362;-6.288;2023-05-01T06:35:00;101656.50;;;13.27;100.00
42587;BME280;28216;53.362;-6.288;2023-05-01T06:37:26;101658.31;;;13.27;100.00
42587;BME280;28216;53.362;-6.288;2023-05-01T06:39:51;101664.25;;;13.29;100.00
42587;BME280;28216;53.362;-6.288;2023-05-01T06:42:16;101653.75;;;13.11;100.00
42587;BME280;28216;53.362;-6.288;2023-05-01T06:44:42;101668.25;;;13.15;100.00
42587;BME280;28216;53.362;-6.288;2023-05-01T06:47:08;101664.22;;;13.21;100.00
42587;BME280;28216;53.362;-6.288;2023-05-01T06:49:34;101666.31;;;13.17;100.00
42587;BME280;28216;53.362;-6.288;2023-05-01T06:52:00;101671.28;;;13.20;100.00
42587;BME280;28216;53.362;-6.288;2023-05-01T06:54:25;101670.00;;;13.24;100.00
42587;BME280;28216;53.362;-6.288;2023-05-01T06:57:10;101670.03;;;13.32;100.00
42587;BME280;28216;53.362;-6.288;2023-05-01T06:59:35;101671.47;;;13.45;100.00
42587;BME280;28216;53.362;-6.288;2023-05-01T07:02:01;101673.47;;;13.51;100.00
42587;BME280;28216;53.362;-6.288;2023-05-01T07:04:26;101672.34;;;13.53;100.00
42587;BME280;28216;53.362;-6.288;2023-05-01T07:06:52;101676.63;;;13.54;100.00
42587;BME280;28216;53.362;-6.288;2023-05-01T07:09:17;101675.81;;;13.54;100.00
42587;BME280;28216;53.362;-6.288;2023-05-01T07:11:42;101674.03;;;13.62;100.00
42587;BME280;28216;53.362;-6.288;2023-05-01T07:14:08;101674.91;;;13.71;100.00
42587;BME280;28216;53.362;-6.288;2023-05-01T07:16:35;101682.06;;;13.87;100.00
42587;BME280;28216;53.362;-6.288;2023-05-01T07:19:00;101671.03;;;13.91;100.00
42587;BME280;28216;53.362;-6.288;2023-05-01T07:21:33;101678.97;;;13.99;100.00
42587;BME280;28216;53.362;-6.288;2023-05-01T07:23:59;101677.03;;;14.10;100.00
42587;BME280;28216;53.362;-6.288;2023-05-01T07:26:27;101676.94;;;14.19;100.00
42587;BME280;28216;53.362;-6.288;2023-05-01T07:35:17;101680.03;;;14.81;100.00
42587;BME280;28216;53.362;-6.288;2023-05-01T07:37:43;101691.28;;;14.91;100.00
42587;BME280;28216;53.362;-6.288;2023-05-01T07:40:09;101687.00;;;15.07;100.00
42587;BME280;28216;53.362;-6.288;2023-05-01T07:42:34;101683.19;;;15.17;100.00
42587;BME280;28216;53.362;-6.288;2023-05-01T07:45:00;101689.75;;;15.70;100.00
42587;BME280;28216;53.362;-6.288;2023-05-01T07:47:26;101695.53;;;16.13;100.00
42587;BME280;28216;53.362;-6.288;2023-05-01T07:49:51;101700.00;;;16.43;100.00
42587;BME280;28216;53.362;-6.288;2023-05-01T07:55:38;101691.81;;;16.84;100.00
42587;BME280;28216;53.362;-6.288;2023-05-01T08:01:26;101695.44;;;17.06;100.00
42587;BME280;28216;53.362;-6.288;2023-05-01T08:03:52;101700.06;;;16.89;100.00
42587;BME280;28216;53.362;-6.288;2023-05-01T08:06:17;101712.94;;;16.69;100.00
42587;BME280;28216;53.362;-6.288;2023-05-01T08:08:42;101705.44;;;16.50;100.00
42587;BME280;28216;53.362;-6.288;2023-05-01T08:11:08;101701.72;;;16.28;100.00
42587;BME280;28216;53.362;-6.288;2023-05-01T08:13:34;101703.63;;;17.19;100.00
42587;BME280;28216;53.362;-6.288;2023-05-01T08:16:03;101700.16;;;18.00;100.00
42587;BME280;28216;53.362;-6.288;2023-05-01T08:18:29;101705.41;;;18.30;100.00
42587;BME280;28216;53.362;-6.288;2023-05-01T08:20:55;101695.19;;;18.12;100.00
42587;BME280;28216;53.362;-6.288;2023-05-01T08:23:20;101703.50;;;18.24;100.00
42587;BME280;28216;53.362;-6.288;2023-05-01T08:25:46;101706.56;;;18.06;100.00
42587;BME280;28216;53.362;-6.288;2023-05-01T08:28:15;101701.59;;;17.59;100.00
42587;BME280;28216;53.362;-6.288;2023-05-01T08:30:41;101707.25;;;17.56;100.00
42587;BME280;28216;53.362;-6.288;2023-05-01T08:33:07;101700.69;;;17.81;100.00
42587;BME280;28216;53.362;-6.288;2023-05-01T08:35:32;101710.03;;;18.06;100.00
42587;BME280;28216;53.362;-6.288;2023-05-01T08:37:57;101711.50;;;17.94;100.00
42587;BME280;28216;53.362;-6.288;2023-05-01T08:40:24;101714.84;;;17.59;100.00
42587;BME280;28216;53.362;-6.288;2023-05-01T08:42:50;101720.53;;;17.18;100.00
42587;BME280;28216;53.362;-6.288;2023-05-01T08:45:17;101724.06;;;17.33;100.00
42587;BME280;28216;53.362;-6.288;2023-05-01T08:47:43;101728.22;;;17.13;100.00
42587;BME280;28216;53.362;-6.288;2023-05-01T08:50:09;101733.78;;;17.18;100.00
42587;BME280;28216;53.362;-6.288;2023-05-01T08:52:45;101731.63;;;17.36;100.00
42587;BME280;28216;53.362;-6.288;2023-05-01T08:55:13;101733.66;;;17.49;100.00
42587;BME280;28216;53.362;-6.288;2023-05-01T08:57:48;101737.84;;;17.06;100.00
42587;BME280;28216;53.362;-6.288;2023-05-01T09:00:19;101738.25;;;16.72;100.00
42587;BME280;28216;53.362;-6.288;2023-05-01T09:02:47;101732.38;;;16.53;100.00
42587;BME280;28216;53.362;-6.288;2023-05-01T09:05:17;101741.66;;;16.49;100.00
42587;BME280;28216;53.362;-6.288;2023-05-01T09:07:43;101744.38;;;16.72;100.00
42587;BME280;28216;53.362;-6.288;2023-05-01T09:10:17;101739.44;;;16.69;100.00
42587;BME280;28216;53.362;-6.288;2023-05-01T09:12:46;101737.38;;;16.79;100.00
42587;BME280;28216;53.362;-6.288;2023-05-01T09:15:13;101737.06;;;16.97;100.00
42587;BME280;28216;53.362;-6.288;2023-05-01T09:17:41;101743.44;;;16.88;100.00
42587;BME280;28216;53.362;-6.288;2023-05-01T09:20:07;101727.38;;;17.12;100.00
42587;BME280;28216;53.362;-6.288;2023-05-01T09:22:34;101732.97;;;17.18;100.00
42587;BME280;28216;53.362;-6.288;2023-05-01T09:25:18;101739.84;;;17.27;100.00
42587;BME280;28216;53.362;-6.288;2023-05-01T09:27:43;101735.88;;;17.45;100.00
42587;BME280;28216;53.362;-6.288;2023-05-01T09:33:09;101739.06;;;17.41;100.00
42587;BME280;28216;53.362;-6.288;2023-05-01T09:35:53;101737.56;;;17.24;100.00
42587;BME280;28216;53.362;-6.288;2023-05-01T09:38:26;101733.81;;;17.33;100.00
42587;BME280;28216;53.362;-6.288;2023-05-01T09:41:02;101730.13;;;17.57;100.00
42587;BME280;28216;53.362;-6.288;2023-05-01T09:43:29;101736.25;;;17.57;100.00
42587;BME280;28216;53.362;-6.288;2023-05-01T09:46:03;101742.81;;;17.46;100.00
42587;BME280;28216;53.362;-6.288;2023-05-01T09:48:34;101742.16;;;17.44;100.00
42587;BME280;28216;53.362;-6.288;2023-05-01T09:51:00;101753.03;;;17.35;100.00
42587;BME280;28216;53.362;-6.288;2023-05-01T09:53:36;101750.97;;;17.22;100.00
42587;BME280;28216;53.362;-6.288;2023-05-01T09:56:02;101746.50;;;17.23;100.00
42587;BME280;28216;53.362;-6.288;2023-05-01T09:58:28;101760.50;;;17.08;100.00
42587;BME280;28216;53.362;-6.288;2023-05-01T10:00:54;101753.97;;;16.96;100.00
42587;BME280;28216;53.362;-6.288;2023-05-01T10:03:20;101746.97;;;17.26;100.00
42587;BME280;28216;53.362;-6.288;2023-05-01T10:05:45;101754.06;;;17.48;100.00
42587;BME280;28216;53.362;-6.288;2023-05-01T10:08:11;101748.72;;;17.71;100.00
42587;BME280;28216;53.362;-6.288;2023-05-01T10:10:40;101750.78;;;17.84;100.00
42587;BME280;28216;53.362;-6.288;2023-05-01T10:16:29;101746.84;;;18.46;100.00
42587;BME280;28216;53.362;-6.288;2023-05-01T10:18:55;101748.28;;;18.78;100.00
42587;BME280;28216;53.362;-6.288;2023-05-01T10:21:22;101753.16;;;18.59;100.00
42587;BME280;28216;53.362;-6.288;2023-05-01T10:23:47;101753.63;;;18.63;100.00
42587;BME280;28216;53.362;-6.288;2023-05-01T10:26:13;101752.38;;;18.80;100.00
42587;BME280;28216;53.362;-6.288;2023-05-01T10:28:41;101755.94;;;18.87;100.00
42587;BME280;28216;53.362;-6.288;2023-05-01T10:31:09;101753.84;;;19.04;100.00
42587;BME280;28216;53.362;-6.288;2023-05-01T10:33:38;101756.13;;;18.86;100.00
42587;BME280;28216;53.362;-6.288;2023-05-01T10:36:05;101755.44;;;18.98;100.00
42587;BME280;28216;53.362;-6.288;2023-05-01T10:38:34;101759.72;;;18.99;100.00
42587;BME280;28216;53.362;-6.288;2023-05-01T10:40:59;101764.34;;;18.91;100.00
42587;BME280;28216;53.362;-6.288;2023-05-01T10:43:27;101757.56;;;18.88;100.00
42587;BME280;28216;53.362;-6.288;2023-05-01T10:51:20;101754.41;;;19.21;100.00
42587;BME280;28216;53.362;-6.288;2023-05-01T10:53:47;101753.72;;;19.33;100.00
42587;BME280;28216;53.362;-6.288;2023-05-01T10:59:00;101763.31;;;19.13;100.00
42587;BME280;28216;53.362;-6.288;2023-05-01T11:01:45;101765.34;;;18.90;100.00
42587;BME280;28216;53.362;-6.288;2023-05-01T11:09:47;101774.66;;;18.79;100.00
42587;BME280;28216;53.362;-6.288;2023-05-01T11:15:10;101768.53;;;18.49;100.00
42587;BME280;28216;53.362;-6.288;2023-05-01T11:20:09;101777.69;;;18.47;100.00
42587;BME280;28216;53.362;-6.288;2023-05-01T11:22:36;101773.28;;;18.54;100.00
42587;BME280;28216;53.362;-6.288;2023-05-01T11:25:03;101779.25;;;18.56;100.00
42587;BME280;28216;53.362;-6.288;2023-05-01T11:27:29;101781.38;;;18.60;100.00
42587;BME280;28216;53.362;-6.288;2023-05-01T11:30:00;101772.28;;;18.55;100.00
42587;BME280;28216;53.362;-6.288;2023-05-01T11:32:26;101772.13;;;18.71;100.00
42587;BME280;28216;53.362;-6.288;2023-05-01T11:34:54;101773.72;;;18.87;100.00
42587;BME280;28216;53.362;-6.288;2023-05-01T11:37:45;101774.09;;;18.84;100.00
42587;BME280;28216;53.362;-6.288;2023-05-01T11:42:46;101776.13;;;18.82;100.00
42587;BME280;28216;53.362;-6.288;2023-05-01T11:48:33;101771.94;;;18.94;100.00
42587;BME280;28216;53.362;-6.288;2023-05-01T11:50:59;101769.09;;;18.95;100.00
42587;BME280;28216;53.362;-6.288;2023-05-01T11:53:25;101769.41;;;18.86;100.00
42587;BME280;28216;53.362;-6.288;2023-05-01T11:55:50;101776.78;;;18.69;100.00
42587;BME280;28216;53.362;-6.288;2023-05-01T11:58:16;101773.88;;;18.64;100.00
42587;BME280;28216;53.362;-6.288;2023-05-01T12:00:42;101774.41;;;18.59;100.00
42587;BME280;28216;53.362;-6.288;2023-05-01T12:03:12;101774.78;;;18.71;100.00
42587;BME280;28216;53.362;-6.288;2023-05-01T12:05:40;101776.34;;;18.65;100.00
42587;BME280;28216;53.362;-6.288;2023-05-01T12:08:24;101768.44;;;18.57;100.00
42587;BME280;28216;53.362;-6.288;2023-05-01T12:10:54;101772.75;;;18.58;100.00
42587;BME280;28216;53.362;-6.288;2023-05-01T12:13:20;101770.28;;;18.71;100.00
42587;BME280;28216;53.362;-6.288;2023-05-01T12:15:48;101769.53;;;18.78;100.00
42587;BME280;28216;53.362;-6.288;2023-05-01T12:18:15;101774.53;;;18.87;100.00
42587;BME280;28216;53.362;-6.288;2023-05-01T12:20:47;101770.41;;;18.85;100.00
42587;BME280;28216;53.362;-6.288;2023-05-01T12:23:14;101761.38;;;19.00;100.00
42587;BME280;28216;53.362;-6.288;2023-05-01T12:25:43;101763.41;;;18.98;100.00
42587;BME280;28216;53.362;-6.288;2023-05-01T12:28:13;101767.25;;;18.96;100.00
42587;BME280;28216;53.362;-6.288;2023-05-01T12:30:39;101771.50;;;19.12;100.00
42587;BME280;28216;53.362;-6.288;2023-05-01T12:33:12;101768.56;;;19.28;100.00
42587;BME280;28216;53.362;-6.288;2023-05-01T12:35:39;101761.09;;;19.38;100.00
42587;BME280;28216;53.362;-6.288;2023-05-01T12:38:19;101774.03;;;19.41;100.00
42587;BME280;28216;53.362;-6.288;2023-05-01T12:43:54;101766.47;;;19.45;100.00
42587;BME280;28216;53.362;-6.288;2023-05-01T12:46:20;101772.03;;;19.50;100.00
42587;BME280;28216;53.362;-6.288;2023-05-01T12:48:46;101768.09;;;19.67;100.00
42587;BME280;28216;53.362;-6.288;2023-05-01T12:51:20;101768.53;;;19.71;100.00
42587;BME280;28216;53.362;-6.288;2023-05-01T12:53:46;101761.59;;;19.76;100.00
42587;BME280;28216;53.362;-6.288;2023-05-01T12:56:23;101767.09;;;19.68;100.00
42587;BME280;28216;53.362;-6.288;2023-05-01T12:58:49;101767.09;;;19.68;100.00
42587;BME280;28216;53.362;-6.288;2023-05-01T13:01:36;101764.22;;;19.70;100.00
42587;BME280;28216;53.362;-6.288;2023-05-01T13:04:02;101772.22;;;19.70;100.00
42587;BME280;28216;53.362;-6.288;2023-05-01T13:06:31;101771.28;;;19.56;100.00
42587;BME280;28216;53.362;-6.288;2023-05-01T13:09:07;101780.59;;;19.24;100.00
42587;BME280;28216;53.362;-6.288;2023-05-01T13:11:36;101774.28;;;19.03;100.00
42587;BME280;28216;53.362;-6.288;2023-05-01T13:14:08;101778.34;;;18.99;100.00
42587;BME280;28216;53.362;-6.288;2023-05-01T13:16:45;101778.28;;;18.93;100.00
42587;BME280;28216;53.362;-6.288;2023-05-01T13:19:10;101776.75;;;18.84;100.00
42587;BME280;28216;53.362;-6.288;2023-05-01T13:21:45;101779.97;;;18.79;100.00
42587;BME280;28216;53.362;-6.288;2023-05-01T13:24:12;101779.16;;;18.79;100.00
42587;BME280;28216;53.362;-6.288;2023-05-01T13:26:37;101774.16;;;18.90;100.00
42587;BME280;28216;53.362;-6.288;2023-05-01T13:29:03;101771.31;;;18.92;100.00
42587;BME280;28216;53.362;-6.288;2023-05-01T13:31:30;101771.19;;;19.00;100.00
42587;BME280;28216;53.362;-6.288;2023-05-01T13:33:59;101771.31;;;18.92;100.00
42587;BME280;28216;53.362;-6.288;2023-05-01T13:36:25;101774.34;;;19.10;100.00
42587;BME280;28216;53.362;-6.288;2023-05-01T13:38:56;101773.19;;;19.19;100.00